Nefteyugansk, Russia
Current Conditions -  °F | °C
As of 3:30 AM on Sunday 26 Oct 2014 (Local Time) from USRR Reporting Station
Light Snow Light Snow  
Wind Chill: -10°   Ceiling: 2900
Heat Index:   Visibility: 4mi
Dew Point: -4°   Wind: 4mph
Humidity: 85%   Direction: 250°WSW
Pressure: 29.59"   Gusts: NA
Location:  61.08°N, 72.7°E
Report Text: USRR 252230Z 25002MPS 6000 -SN OVC029 M18/M20 Q1002 TEMPO 2000SN BR BKN005 RMK OBST OBSC QFE746 25////55
Loading
Personal Weather Stations






























Interactive Weather Map
Tropical Storm Tracking
New forecast layout! Learn more

10-Day Weather Forecast

Advertisements
Track Severe Weather on mobile